Time,TemperatureF,DewpointF,PressureIn,WindDirection,WindDirectionDegrees,WindSpeedMPH,WindSpeedGustMPH,Humidity,HourlyPrecipIn,Conditions,Clouds,dailyrainin,SoftwareType,DateUTC
2013-07-16 00:00:00,64.7,41.7,29.71,NNE,15,1.1,1.1,43,0.00,CLR,SKC,0.00,WeatherDisplay:10.37,2013-07-16 06:00:00,
2013-07-16 00:06:00,64.6,42.2,29.71,NNE,15,0.0,0.0,44,0.00,CLR,SKC,0.00,WeatherDisplay:10.37,2013-07-16 06:06:00,
2013-07-16 00:11:00,64.5,42.7,29.70,NNE,15,0.0,0.0,45,0.00,CLR,SKC,0.00,WeatherDisplay:10.37,2013-07-16 06:11:00,
2013-07-16 00:16:00,64.3,43.1,29.71,NNE,15,1.1,0.0,46,0.00,CLR,SKC,0.00,WeatherDisplay:10.37,2013-07-16 06:16:00,
2013-07-16 00:22:00,64.3,40.7,29.71,South,169,0.0,0.6,42,0.00,CLR,SKC,0.00,WeatherDisplay:10.37,2013-07-16 06:22:00,
2013-07-16 00:27:00,65.0,41.9,29.71,South,169,0.0,0.0,43,0.00,CLR,SKC,0.00,WeatherDisplay:10.37,2013-07-16 06:27:00,
2013-07-16 00:32:00,65.6,42.5,29.70,ESE,108,0.0,0.0,43,0.00,CLR,SKC,0.00,WeatherDisplay:10.37,2013-07-16 06:32:00,
2013-07-16 00:37:00,66.0,43.5,29.71,ESE,108,0.0,0.0,44,0.00,CLR,SKC,0.00,WeatherDisplay:10.37,2013-07-16 06:37:00,
2013-07-16 00:42:00,66.0,41.6,29.71,ESE,108,0.0,0.0,41,0.00,CLR,SKC,0.00,WeatherDisplay:10.37,2013-07-16 06:42:00,
2013-07-16 00:47:00,66.0,41.6,29.71,ESE,104,1.1,1.1,41,0.00,CLR,SKC,0.00,WeatherDisplay:10.37,2013-07-16 06:47:00,
2013-07-16 00:53:00,65.6,41.3,29.71,ENE,67,0.0,0.0,41,0.00,CLR,SKC,0.00,WeatherDisplay:10.37,2013-07-16 06:53:00,
2013-07-16 00:58:00,65.2,42.1,29.72,ENE,67,0.0,0.0,43,0.00,CLR,SKC,0.00,WeatherDisplay:10.37,2013-07-16 06:58:00,
2013-07-16 01:03:00,64.8,43.5,29.72,ENE,67,0.0,0.0,46,0.00,CLR,SKC,0.00,WeatherDisplay:10.37,2013-07-16 07:03:00,
2013-07-16 01:08:00,63.8,42.0,29.72,ENE,67,0.0,0.0,45,0.00,CLR,SKC,0.00,WeatherDisplay:10.37,2013-07-16 07:08:00,
2013-07-16 01:13:00,62.9,42.4,29.72,ENE,67,1.1,0.0,47,0.00,CLR,SKC,0.00,WeatherDisplay:10.37,2013-07-16 07:13:00,
2013-07-16 01:18:00,62.5,43.6,29.72,ENE,67,0.0,0.0,50,0.00,CLR,SKC,0.00,WeatherDisplay:10.37,2013-07-16 07:18:00,
2013-07-16 01:23:00,62.2,44.3,29.72,ENE,67,0.0,0.0,52,0.00,CLR,SKC,0.00,WeatherDisplay:10.37,2013-07-16 07:23:00,
2013-07-16 01:28:00,61.9,44.1,29.72,ENE,68,2.0,2.0,52,0.00,CLR,SKC,0.00,WeatherDisplay:10.37,2013-07-16 07:28:00,
2013-07-16 01:33:00,61.5,44.2,29.73,ENE,68,0.0,0.0,53,0.00,CLR,SKC,0.00,WeatherDisplay:10.37,2013-07-16 07:33:00,
2013-07-16 01:38:00,61.3,45.5,29.73,ENE,67,0.0,0.0,56,0.00,CLR,SKC,0.00,WeatherDisplay:10.37,2013-07-16 07:38:00,
2013-07-16 01:43:00,60.7,44.9,29.73,ENE,68,0.0,0.0,56,0.00,CLR,SKC,0.00,WeatherDisplay:10.37,2013-07-16 07:43:00,
2013-07-16 01:48:00,60.0,44.7,29.73,ENE,67,0.0,0.0,57,0.00,CLR,SKC,0.00,WeatherDisplay:10.37,2013-07-16 07:48:00,
2013-07-16 01:53:00,59.4,44.6,29.73,ENE,68,1.1,1.1,58,0.00,CLR,SKC,0.00,WeatherDisplay:10.37,2013-07-16 07:53:00,
2013-07-16 01:58:00,59.3,45.0,29.74,ENE,68,0.0,0.0,59,0.00,CLR,SKC,0.00,WeatherDisplay:10.37,2013-07-16 07:58:00,
2013-07-16 02:03:00,59.4,45.1,29.74,ENE,67,0.0,0.0,59,0.00,CLR,SKC,0.00,WeatherDisplay:10.37,2013-07-16 08:03:00,
2013-07-16 02:08:00,59.1,43.4,29.74,ENE,67,0.0,0.0,56,0.00,CLR,SKC,0.00,WeatherDisplay:10.37,2013-07-16 08:08:00,
2013-07-16 02:13:00,58.8,44.9,29.74,ENE,68,0.0,0.0,60,0.00,CLR,SKC,0.00,WeatherDisplay:10.37,2013-07-16 08:13:00,
2013-07-16 02:20:00,58.4,45.0,29.74,ENE,67,0.0,0.0,61,0.00,CLR,SKC,0.00,WeatherDisplay:10.37,2013-07-16 08:20:00,
2013-07-16 02:29:00,58.0,44.6,29.74,ENE,68,0.0,0.0,61,0.00,CLR,SKC,0.00,WeatherDisplay:10.37,2013-07-16 08:29:00,
2013-07-16 02:35:00,57.5,45.0,29.74,ENE,68,1.1,1.1,63,0.00,CLR,SKC,0.00,WeatherDisplay:10.37,2013-07-16 08:35:00,
2013-07-16 02:41:00,57.2,45.5,29.75,ENE,67,1.0,1.0,65,0.00,CLR,SKC,0.00,WeatherDisplay:10.37,2013-07-16 08:41:00,
2013-07-16 02:46:00,57.2,43.0,29.75,WSW,238,1.1,0.0,59,0.00,CLR,SKC,0.00,WeatherDisplay:10.37,2013-07-16 08:46:00,
2013-07-16 02:52:00,57.1,44.2,29.75,SSW,200,1.1,1.3,62,0.00,CLR,SKC,0.00,WeatherDisplay:10.37,2013-07-16 08:52:00,
2013-07-16 02:58:00,56.9,44.0,29.75,ESE,115,1.1,1.1,62,0.00,CLR,SKC,0.00,WeatherDisplay:10.37,2013-07-16 08:58:00,
2013-07-16 03:03:00,56.7,44.2,29.76,SSW,203,0.0,0.0,63,0.00,CLR,SKC,0.00,WeatherDisplay:10.37,2013-07-16 09:03:00,
2013-07-16 03:08:00,56.7,44.2,29.76,WNW,289,2.0,2.0,63,0.00,CLR,SKC,0.00,WeatherDisplay:10.37,2013-07-16 09:08:00,
2013-07-16 03:13:00,56.5,44.9,29.76,WNW,290,2.0,2.0,65,0.00,CLR,SKC,0.00,WeatherDisplay:10.37,2013-07-16 09:13:00,
2013-07-16 03:18:00,56.4,44.0,29.76,WNW,290,0.0,0.0,63,0.00,CLR,SKC,0.00,WeatherDisplay:10.37,2013-07-16 09:18:00,
2013-07-16 03:24:00,56.2,44.6,29.76,WNW,290,0.0,0.0,65,0.00,CLR,SKC,0.00,WeatherDisplay:10.37,2013-07-16 09:24:00,
2013-07-16 03:29:00,56.1,46.0,29.75,WNW,290,0.0,0.0,69,0.00,CLR,SKC,0.00,WeatherDisplay:10.37,2013-07-16 09:29:00,
2013-07-16 03:34:00,55.5,45.9,29.75,WNW,290,0.0,0.0,70,0.00,CLR,SKC,0.00,WeatherDisplay:10.37,2013-07-16 09:34:00,
2013-07-16 03:39:00,55.1,45.1,29.76,WNW,290,0.0,0.0,69,0.00,CLR,SKC,0.00,WeatherDisplay:10.37,2013-07-16 09:39:00,
2013-07-16 03:44:00,55.0,45.4,29.76,WNW,290,0.0,0.0,70,0.00,CLR,SKC,0.00,WeatherDisplay:10.37,2013-07-16 09:44:00,
2013-07-16 03:50:00,54.6,44.2,29.76,WNW,288,0.0,0.0,68,0.00,CLR,SKC,0.00,WeatherDisplay:10.37,2013-07-16 09:50:00,
2013-07-16 03:55:00,54.7,45.8,29.76,WNW,288,1.1,0.0,72,0.00,CLR,SKC,0.00,WeatherDisplay:10.37,2013-07-16 09:55:00,
2013-07-16 04:00:00,54.4,44.4,29.76,WNW,288,0.0,0.0,69,0.00,CLR,SKC,0.00,WeatherDisplay:10.37,2013-07-16 10:00:00,
2013-07-16 04:05:00,54.2,45.7,29.76,WNW,288,0.0,0.0,73,0.00,CLR,SKC,0.00,WeatherDisplay:10.37,2013-07-16 10:05:00,
2013-07-16 04:10:00,53.9,45.4,29.76,WNW,288,0.0,0.0,73,0.00,CLR,SKC,0.00,WeatherDisplay:10.37,2013-07-16 10:10:00,
2013-07-16 04:15:00,53.6,43.7,29.76,WNW,288,0.0,0.0,69,0.00,CLR,SKC,0.00,WeatherDisplay:10.37,2013-07-16 10:15:00,
2013-07-16 04:20:00,53.7,44.9,29.76,WNW,288,0.0,0.0,72,0.00,CLR,SKC,0.00,WeatherDisplay:10.37,2013-07-16 10:20:00,
2013-07-16 04:25:00,53.7,44.9,29.76,WNW,288,0.0,0.0,72,0.00,CLR,SKC,0.00,WeatherDisplay:10.37,2013-07-16 10:25:00,
2013-07-16 04:30:00,53.7,45.6,29.76,WNW,288,0.0,0.0,74,0.00,CLR,SKC,0.00,WeatherDisplay:10.37,2013-07-16 10:30:00,
2013-07-16 04:35:00,53.6,44.8,29.76,WNW,288,0.0,0.0,72,0.00,CLR,SKC,0.00,WeatherDisplay:10.37,2013-07-16 10:35:00,
2013-07-16 04:40:00,53.6,44.4,29.76,WNW,288,0.0,0.0,71,0.00,CLR,SKC,0.00,WeatherDisplay:10.37,2013-07-16 10:40:00,
2013-07-16 04:46:00,53.7,45.6,29.77,WNW,288,0.0,0.0,74,0.00,CLR,SKC,0.00,WeatherDisplay:10.37,2013-07-16 10:46:00,
2013-07-16 04:51:00,53.4,45.3,29.77,WNW,288,0.0,0.0,74,0.00,CLR,SKC,0.00,WeatherDisplay:10.37,2013-07-16 10:51:00,
2013-07-16 04:57:00,53.2,44.8,29.77,WNW,288,0.0,0.0,73,0.00,CLR,SKC,0.00,WeatherDisplay:10.37,2013-07-16 10:57:00,
2013-07-16 05:02:00,53.2,44.0,29.77,WNW,288,0.0,0.0,71,0.00,CLR,SKC,0.00,WeatherDisplay:10.37,2013-07-16 11:02:00,
2013-07-16 05:07:00,53.2,45.1,29.77,WNW,288,0.0,0.0,74,0.00,CLR,SKC,0.00,WeatherDisplay:10.37,2013-07-16 11:07:00,
2013-07-16 05:12:00,53.1,44.7,29.78,WNW,288,0.0,0.0,73,0.00,CLR,SKC,0.00,WeatherDisplay:10.37,2013-07-16 11:12:00,
2013-07-16 05:17:00,53.0,44.2,29.77,WNW,288,0.0,0.0,72,0.00,CLR,SKC,0.00,WeatherDisplay:10.37,2013-07-16 11:17:00,
2013-07-16 05:22:00,52.7,45.0,29.78,WNW,288,0.0,0.0,75,0.00,CLR,SKC,0.00,WeatherDisplay:10.37,2013-07-16 11:22:00,
2013-07-16 05:27:00,52.3,44.3,29.78,WNW,288,0.0,0.0,74,0.00,CLR,SKC,0.00,WeatherDisplay:10.37,2013-07-16 11:27:00,
2013-07-16 05:32:00,52.3,43.9,29.78,WNW,288,0.0,0.0,73,0.00,CLR,SKC,0.00,WeatherDisplay:10.37,2013-07-16 11:32:00,
2013-07-16 05:37:00,52.2,44.2,29.78,WNW,288,0.0,0.0,74,0.00,CLR,SKC,0.00,WeatherDisplay:10.37,2013-07-16 11:37:00,
2013-07-16 05:42:00,52.1,43.7,29.78,West,273,0.0,0.0,73,0.00,CLR,SKC,0.00,WeatherDisplay:10.37,2013-07-16 11:42:00,
2013-07-16 05:47:00,52.1,45.1,29.78,West,273,0.0,0.0,77,0.00,CLR,SKC,0.00,WeatherDisplay:10.37,2013-07-16 11:47:00,
2013-07-16 05:52:00,51.9,44.9,29.79,West,273,0.0,0.0,77,0.00,CLR,SKC,0.00,WeatherDisplay:10.37,2013-07-16 11:52:00,
2013-07-16 05:58:00,51.6,43.9,29.79,West,273,0.0,0.0,75,0.00,CLR,SKC,0.00,WeatherDisplay:10.37,2013-07-16 11:58:00,
2013-07-16 06:03:00,51.6,43.9,29.79,West,273,0.0,0.0,75,0.00,CLR,SKC,0.00,WeatherDisplay:10.37,2013-07-16 12:03:00,
2013-07-16 06:08:00,51.7,44.7,29.80,West,273,0.0,0.0,77,0.00,CLR,SKC,0.00,WeatherDisplay:10.37,2013-07-16 12:08:00,
2013-07-16 06:13:00,51.5,44.9,29.80,West,273,0.0,0.3,78,0.00,CLR,SKC,0.00,WeatherDisplay:10.37,2013-07-16 12:13:00,
2013-07-16 06:18:00,51.4,44.8,29.80,West,273,0.0,0.0,78,0.00,CLR,SKC,0.00,WeatherDisplay:10.37,2013-07-16 12:18:00,
2013-07-16 06:24:00,51.4,44.8,29.80,West,273,1.1,0.0,78,0.00,CLR,SKC,0.00,WeatherDisplay:10.37,2013-07-16 12:24:00,
2013-07-16 06:29:00,51.5,44.5,29.80,WSW,243,1.1,0.0,77,0.00,CLR,SKC,0.00,WeatherDisplay:10.37,2013-07-16 12:29:00,
2013-07-16 06:35:00,51.6,45.3,29.80,WSW,243,0.0,0.0,79,0.00,CLR,SKC,0.00,WeatherDisplay:10.37,2013-07-16 12:35:00,
2013-07-16 06:40:00,51.5,45.2,29.80,WSW,243,0.0,0.0,79,0.00,CLR,SKC,0.00,WeatherDisplay:10.37,2013-07-16 12:40:00,
2013-07-16 06:45:00,51.6,45.3,29.80,WSW,243,0.0,0.0,79,0.00,CLR,SKC,0.00,WeatherDisplay:10.37,2013-07-16 12:45:00,
2013-07-16 06:50:00,51.8,45.5,29.81,WSW,243,1.1,0.0,79,0.00,CLR,SKC,0.00,WeatherDisplay:10.37,2013-07-16 12:50:00,
2013-07-16 06:55:00,52.0,45.7,29.81,WSW,243,0.0,0.0,79,0.00,CLR,SKC,0.00,WeatherDisplay:10.37,2013-07-16 12:55:00,
2013-07-16 07:00:00,52.2,45.9,29.81,WSW,242,0.0,0.0,79,0.00,CLR,SKC,0.00,WeatherDisplay:10.37,2013-07-16 13:00:00,
2013-07-16 07:05:00,52.5,46.2,29.81,WSW,242,0.0,0.0,79,0.00,CLR,SKC,0.00,WeatherDisplay:10.37,2013-07-16 13:05:00,
2013-07-16 07:10:00,52.7,46.7,29.81,WSW,242,0.0,0.0,80,0.00,CLR,SKC,0.00,WeatherDisplay:10.37,2013-07-16 13:10:00,
2013-07-16 07:15:00,52.9,46.9,29.81,WSW,242,0.0,0.0,80,0.00,CLR,SKC,0.00,WeatherDisplay:10.37,2013-07-16 13:15:00,
2013-07-16 07:20:00,53.2,47.2,29.81,WSW,242,1.1,0.0,80,0.00,CLR,SKC,0.00,WeatherDisplay:10.37,2013-07-16 13:20:00,
2013-07-16 07:25:00,53.4,47.4,29.82,WSW,242,0.0,0.0,80,0.00,CLR,SKC,0.00,WeatherDisplay:10.37,2013-07-16 13:25:00,
2013-07-16 07:31:00,54.0,48.0,29.82,WSW,242,0.0,0.0,80,0.00,CLR,SKC,0.00,WeatherDisplay:10.37,2013-07-16 13:31:00,
2013-07-16 07:36:00,54.6,48.6,29.82,WSW,242,0.0,0.0,80,0.00,CLR,SKC,0.00,WeatherDisplay:10.37,2013-07-16 13:36:00,
2013-07-16 07:41:00,55.1,48.7,29.82,WSW,242,0.0,0.0,79,0.00,CLR,SKC,0.00,WeatherDisplay:10.37,2013-07-16 13:41:00,
2013-07-16 07:47:00,55.7,48.6,29.82,WSW,242,0.0,0.0,77,0.00,CLR,SKC,0.00,WeatherDisplay:10.37,2013-07-16 13:47:00,
2013-07-16 07:51:00,56.2,48.7,29.83,WSW,242,0.0,0.0,76,0.00,CLR,SKC,0.00,WeatherDisplay:10.37,2013-07-16 13:51:00,
2013-07-16 07:56:00,56.8,49.3,29.82,WSW,242,0.0,0.0,76,0.00,CLR,SKC,0.00,WeatherDisplay:10.37,2013-07-16 13:56:00,
2013-07-16 08:01:00,57.5,49.6,29.82,WSW,242,0.0,0.0,75,0.00,CLR,SKC,0.00,WeatherDisplay:10.37,2013-07-16 14:01:00,
2013-07-16 08:06:00,57.9,49.7,29.83,WSW,242,0.0,0.0,74,0.00,CLR,SKC,0.00,WeatherDisplay:10.37,2013-07-16 14:06:00,
2013-07-16 08:11:00,58.3,50.4,29.83,WSW,242,0.0,0.0,75,0.00,CLR,SKC,0.00,WeatherDisplay:10.37,2013-07-16 14:11:00,
2013-07-16 08:16:00,58.5,50.6,29.83,WSW,242,0.0,0.0,75,0.00,CLR,SKC,0.00,WeatherDisplay:10.37,2013-07-16 14:16:00,
2013-07-16 08:21:00,58.8,51.6,29.83,WSW,242,0.0,0.0,77,0.00,CLR,SKC,0.00,WeatherDisplay:10.37,2013-07-16 14:21:00,
2013-07-16 08:26:00,59.1,51.2,29.84,WSW,242,0.0,0.0,75,0.00,CLR,SKC,0.00,WeatherDisplay:10.37,2013-07-16 14:26:00,
2013-07-16 08:31:00,59.4,50.7,29.84,WSW,242,0.0,0.0,73,0.00,CLR,SKC,0.00,WeatherDisplay:10.37,2013-07-16 14:31:00,
2013-07-16 08:36:00,59.9,51.6,29.84,WSW,242,0.0,0.0,74,0.00,CLR,SKC,0.00,WeatherDisplay:10.37,2013-07-16 14:36:00,
2013-07-16 08:41:00,60.4,51.7,29.84,WSW,242,0.0,0.0,73,0.00,CLR,SKC,0.00,WeatherDisplay:10.37,2013-07-16 14:41:00,
2013-07-16 08:46:00,60.9,52.6,29.84,WSW,242,0.0,0.0,74,0.00,CLR,SKC,0.00,WeatherDisplay:10.37,2013-07-16 14:46:00,
2013-07-16 08:51:00,61.4,52.7,29.84,WSW,242,0.0,0.0,73,0.00,CLR,SKC,0.00,WeatherDisplay:10.37,2013-07-16 14:51:00,
2013-07-16 08:56:00,61.9,53.1,29.84,South,178,0.0,0.0,73,0.00,CLR,SKC,0.00,WeatherDisplay:10.37,2013-07-16 14:56:00,
2013-07-16 09:01:00,62.4,52.9,29.84,South,178,0.0,0.0,71,0.00,CLR,SKC,0.00,WeatherDisplay:10.37,2013-07-16 15:01:00,
2013-07-16 09:06:00,62.9,53.0,29.84,South,178,0.0,0.0,70,0.00,CLR,SKC,0.00,WeatherDisplay:10.37,2013-07-16 15:06:00,
2013-07-16 09:12:00,63.4,53.4,29.83,South,178,0.0,0.0,70,0.00,CLR,SKC,0.00,WeatherDisplay:10.37,2013-07-16 15:12:00,
2013-07-16 09:18:00,63.8,52.6,29.83,South,178,0.0,0.0,67,0.00,CLR,SKC,0.00,WeatherDisplay:10.37,2013-07-16 15:18:00,
2013-07-16 09:23:00,64.3,52.7,29.83,South,178,0.0,0.0,66,0.00,CLR,SKC,0.00,WeatherDisplay:10.37,2013-07-16 15:23:00,
2013-07-16 09:28:00,64.8,53.6,29.83,South,178,0.0,0.0,67,0.00,CLR,SKC,0.00,WeatherDisplay:10.37,2013-07-16 15:28:00,
2013-07-16 09:33:00,65.3,51.1,29.83,South,178,1.1,0.0,60,0.00,CLR,SKC,0.00,WeatherDisplay:10.37,2013-07-16 15:33:00,
2013-07-16 09:38:00,66.3,51.0,29.83,SSE,166,0.0,1.0,58,0.00,CLR,SKC,0.00,WeatherDisplay:10.37,2013-07-16 15:38:00,
2013-07-16 09:44:00,67.5,50.8,29.83,SE,128,1.1,1.1,55,0.00,CLR,SKC,0.00,WeatherDisplay:10.37,2013-07-16 15:44:00,
2013-07-16 09:49:00,68.2,50.4,29.83,ESE,123,1.1,1.1,53,0.00,CLR,SKC,0.00,WeatherDisplay:10.37,2013-07-16 15:49:00,
2013-07-16 09:54:00,68.7,50.4,29.83,ESE,123,0.0,0.2,52,0.00,CLR,SKC,0.00,WeatherDisplay:10.37,2013-07-16 15:54:00,
2013-07-16 09:59:00,69.2,49.2,29.83,ESE,109,1.1,1.1,49,0.00,CLR,SKC,0.00,WeatherDisplay:10.37,2013-07-16 15:59:00,
2013-07-16 10:04:00,69.6,49.6,29.83,ESE,109,1.1,1.1,49,0.00,CLR,SKC,0.00,WeatherDisplay:10.37,2013-07-16 16:04:00,
2013-07-16 10:09:00,70.0,50.0,29.83,NE,47,2.3,2.3,49,0.00,CLR,SKC,0.00,WeatherDisplay:10.37,2013-07-16 16:09:00,
2013-07-16 10:14:00,70.4,50.9,29.82,NE,47,1.1,1.1,50,0.00,CLR,SKC,0.00,WeatherDisplay:10.37,2013-07-16 16:14:00,
2013-07-16 10:19:00,70.9,50.8,29.82,NE,47,1.1,1.1,49,0.00,CLR,SKC,0.00,WeatherDisplay:10.37,2013-07-16 16:19:00,
2013-07-16 10:25:00,71.3,50.6,29.82,NE,49,1.1,1.1,48,0.00,CLR,SKC,0.00,WeatherDisplay:10.37,2013-07-16 16:25:00,
2013-07-16 10:30:00,71.5,49.6,29.82,NE,50,2.0,2.0,46,0.00,CLR,SKC,0.00,WeatherDisplay:10.37,2013-07-16 16:30:00,
2013-07-16 10:35:00,71.7,49.2,29.82,NE,50,1.1,1.1,45,0.00,CLR,SKC,0.00,WeatherDisplay:10.37,2013-07-16 16:35:00,
2013-07-16 10:40:00,71.9,50.0,29.81,NE,40,2.3,2.3,46,0.00,CLR,SKC,0.00,WeatherDisplay:10.37,2013-07-16 16:40:00,
2013-07-16 10:45:00,72.1,50.2,29.81,NE,41,1.1,1.1,46,0.00,CLR,SKC,0.00,WeatherDisplay:10.37,2013-07-16 16:45:00,
2013-07-16 10:50:00,72.3,49.8,29.81,NE,50,2.0,2.0,45,0.00,CLR,SKC,0.00,WeatherDisplay:10.37,2013-07-16 16:50:00,
2013-07-16 10:55:00,72.7,50.1,29.81,ENE,57,2.3,2.3,45,0.00,CLR,SKC,0.00,WeatherDisplay:10.37,2013-07-16 16:55:00,
2013-07-16 11:00:00,72.9,49.7,29.81,ENE,57,1.1,1.1,44,0.00,CLR,SKC,0.00,WeatherDisplay:10.37,2013-07-16 17:00:00,
2013-07-16 11:05:00,73.4,49.5,29.81,ENE,57,2.3,2.3,43,0.00,CLR,SKC,0.00,WeatherDisplay:10.37,2013-07-16 17:05:00,
2013-07-16 11:10:00,73.7,49.8,29.80,ENE,57,1.1,1.1,43,0.00,CLR,SKC,0.00,WeatherDisplay:10.37,2013-07-16 17:10:00,
2013-07-16 11:15:00,74.1,50.8,29.80,NNE,31,2.3,2.3,44,0.00,CLR,SKC,0.00,WeatherDisplay:10.37,2013-07-16 17:15:00,
2013-07-16 11:20:00,74.3,48.4,29.80,NE,54,1.1,1.1,40,0.00,CLR,SKC,0.00,WeatherDisplay:10.37,2013-07-16 17:20:00,
2013-07-16 11:26:00,74.5,50.5,29.80,NE,55,0.0,0.0,43,0.00,CLR,SKC,0.00,WeatherDisplay:10.37,2013-07-16 17:26:00,
2013-07-16 11:31:00,74.8,50.8,29.79,South,187,1.1,0.0,43,0.00,CLR,SKC,0.00,WeatherDisplay:10.37,2013-07-16 17:31:00,
2013-07-16 11:36:00,75.2,51.8,29.79,ESE,120,0.0,0.1,44,0.00,CLR,SKC,0.00,WeatherDisplay:10.37,2013-07-16 17:36:00,
2013-07-16 11:42:00,75.5,49.5,29.78,NE,44,1.1,1.1,40,0.00,CLR,SKC,0.00,WeatherDisplay:10.37,2013-07-16 17:42:00,
2013-07-16 11:47:00,75.7,51.0,29.78,NE,44,1.0,1.0,42,0.00,CLR,SKC,0.00,WeatherDisplay:10.37,2013-07-16 17:47:00,
2013-07-16 11:53:00,76.3,50.2,29.77,NNE,25,1.1,1.1,40,0.00,CLR,SKC,0.00,WeatherDisplay:10.37,2013-07-16 17:53:00,
2013-07-16 11:58:00,76.6,49.1,29.77,NE,40,0.0,2.0,38,0.00,CLR,SKC,0.00,WeatherDisplay:10.37,2013-07-16 17:58:00,
2013-07-16 12:04:00,76.9,50.1,29.77,NE,51,1.1,1.1,39,0.00,CLR,SKC,0.00,WeatherDisplay:10.37,2013-07-16 18:04:00,
2013-07-16 12:09:00,77.4,51.9,29.77,NE,50,1.1,1.1,41,0.00,CLR,SKC,0.00,WeatherDisplay:10.37,2013-07-16 18:09:00,
2013-07-16 12:14:00,78.2,52.6,29.76,NE,45,1.1,1.1,41,0.00,CLR,SKC,0.00,WeatherDisplay:10.37,2013-07-16 18:14:00,
2013-07-16 12:19:00,78.6,50.9,29.76,NNE,31,2.3,2.3,38,0.00,CLR,SKC,0.00,WeatherDisplay:10.37,2013-07-16 18:19:00,
2013-07-16 12:24:00,78.5,50.1,29.76,North,9,2.3,2.3,37,0.00,CLR,SKC,0.00,WeatherDisplay:10.37,2013-07-16 18:24:00,
2013-07-16 12:29:00,78.8,51.0,29.76,NE,46,3.5,3.5,38,0.00,CLR,SKC,0.00,WeatherDisplay:10.37,2013-07-16 18:29:00,
2013-07-16 12:34:00,78.8,49.6,29.76,NNE,29,2.3,2.3,36,0.00,CLR,SKC,0.00,WeatherDisplay:10.37,2013-07-16 18:34:00,
2013-07-16 12:39:00,78.9,49.7,29.75,NE,53,1.1,1.1,36,0.00,CLR,SKC,0.00,WeatherDisplay:10.37,2013-07-16 18:39:00,
2013-07-16 12:43:00,79.1,49.1,29.75,NNE,31,2.0,2.0,35,0.00,CLR,SKC,0.00,WeatherDisplay:10.37,2013-07-16 18:43:00,
2013-07-16 12:48:00,79.3,50.0,29.75,NE,44,0.0,0.0,36,0.00,CLR,SKC,0.00,WeatherDisplay:10.37,2013-07-16 18:48:00,
2013-07-16 12:53:00,79.7,48.0,29.74,NE,54,3.5,3.5,33,0.00,CLR,SKC,0.00,WeatherDisplay:10.37,2013-07-16 18:53:00,
2013-07-16 12:58:00,80.0,49.9,29.74,ENE,70,2.3,2.3,35,0.00,CLR,SKC,0.00,WeatherDisplay:10.37,2013-07-16 18:58:00,
2013-07-16 13:04:00,80.4,48.6,29.74,ENE,65,0.0,2.0,33,0.00,CLR,SKC,0.00,WeatherDisplay:10.37,2013-07-16 19:04:00,
2013-07-16 13:09:00,80.9,47.4,29.74,ENE,63,0.0,2.0,31,0.00,CLR,SKC,0.00,WeatherDisplay:10.37,2013-07-16 19:09:00,
2013-07-16 13:14:00,81.5,47.9,29.73,ENE,69,1.1,0.0,31,0.00,CLR,SKC,0.00,WeatherDisplay:10.37,2013-07-16 19:14:00,
2013-07-16 13:19:00,81.9,50.0,29.73,ENE,65,2.0,2.0,33,0.00,CLR,SKC,0.00,WeatherDisplay:10.37,2013-07-16 19:19:00,
2013-07-16 13:25:00,82.5,51.3,29.73,North,355,1.1,1.1,34,0.00,CLR,SKC,0.00,WeatherDisplay:10.37,2013-07-16 19:25:00,
2013-07-16 13:30:00,83.0,50.1,29.73,ENE,66,2.3,2.3,32,0.00,CLR,SKC,0.00,WeatherDisplay:10.37,2013-07-16 19:30:00,
2013-07-16 13:36:00,83.3,51.2,29.73,ESE,102,1.1,1.1,33,0.00,CLR,SKC,0.00,WeatherDisplay:10.37,2013-07-16 19:36:00,
2013-07-16 13:41:00,83.6,49.8,29.72,NE,40,3.5,3.5,31,0.00,CLR,SKC,0.00,WeatherDisplay:10.37,2013-07-16 19:41:00,
2013-07-16 13:46:00,83.6,50.6,29.72,NNE,22,1.1,1.1,32,0.00,CLR,SKC,0.00,WeatherDisplay:10.37,2013-07-16 19:46:00,
2013-07-16 13:51:00,84.1,49.3,29.72,NNE,17,2.3,2.3,30,0.00,CLR,SKC,0.00,WeatherDisplay:10.37,2013-07-16 19:51:00,
2013-07-16 13:56:00,84.8,50.8,29.72,North,355,1.1,1.1,31,0.00,CLR,SKC,0.00,WeatherDisplay:10.37,2013-07-16 19:56:00,
2013-07-16 14:02:00,85.4,49.5,29.72,NE,45,2.3,2.3,29,0.00,CLR,SKC,0.00,WeatherDisplay:10.37,2013-07-16 20:02:00,
2013-07-16 14:07:00,85.5,49.6,29.72,East,97,1.1,1.1,29,0.00,CLR,SKC,0.00,WeatherDisplay:10.37,2013-07-16 20:07:00,
2013-07-16 14:13:00,85.5,49.6,29.71,East,82,2.3,0.0,29,0.00,CLR,SKC,0.00,WeatherDisplay:10.37,2013-07-16 20:13:00,
2013-07-16 14:18:00,85.7,49.8,29.71,NE,56,2.3,2.3,29,0.00,CLR,SKC,0.00,WeatherDisplay:10.37,2013-07-16 20:18:00,
2013-07-16 14:23:00,85.8,48.9,29.71,ENE,61,1.1,1.1,28,0.00,CLR,SKC,0.00,WeatherDisplay:10.37,2013-07-16 20:23:00,
2013-07-16 14:28:00,86.1,49.2,29.70,ENE,71,2.3,2.3,28,0.00,CLR,SKC,0.00,WeatherDisplay:10.37,2013-07-16 20:28:00,
2013-07-16 14:33:00,86.3,49.4,29.70,ENE,67,2.3,2.3,28,0.00,CLR,SKC,0.00,WeatherDisplay:10.37,2013-07-16 20:33:00,
2013-07-16 14:38:00,86.5,50.5,29.70,ENE,67,2.0,2.0,29,0.00,CLR,SKC,0.00,WeatherDisplay:10.37,2013-07-16 20:38:00,
2013-07-16 14:43:00,86.5,49.5,29.70,ENE,64,2.3,2.3,28,0.00,CLR,SKC,0.00,WeatherDisplay:10.37,2013-07-16 20:43:00,
2013-07-16 14:48:00,86.5,49.5,29.69,ENE,77,2.0,2.0,28,0.00,CLR,SKC,0.00,WeatherDisplay:10.37,2013-07-16 20:48:00,
2013-07-16 14:53:00,86.8,52.5,29.69,ENE,65,2.3,2.3,31,0.00,CLR,SKC,0.00,WeatherDisplay:10.37,2013-07-16 20:53:00,
2013-07-16 14:58:00,87.3,53.0,29.69,ENE,66,3.5,3.5,31,0.00,CLR,SKC,0.00,WeatherDisplay:10.37,2013-07-16 20:58:00,
2013-07-16 15:03:00,87.3,50.2,29.68,ENE,63,0.0,2.0,28,0.00,CLR,SKC,0.00,WeatherDisplay:10.37,2013-07-16 21:03:00,
2013-07-16 15:09:00,87.3,51.2,29.68,ENE,59,2.3,2.3,29,0.00,CLR,SKC,0.00,WeatherDisplay:10.37,2013-07-16 21:09:00,
2013-07-16 15:15:00,87.7,51.5,29.67,East,79,2.0,2.0,29,0.00,CLR,SKC,0.00,WeatherDisplay:10.37,2013-07-16 21:15:00,
2013-07-16 15:20:00,88.1,51.8,29.67,ENE,62,3.5,0.0,29,0.00,CLR,SKC,0.00,WeatherDisplay:10.37,2013-07-16 21:20:00,
2013-07-16 15:25:00,89.0,50.7,29.67,ENE,65,3.5,3.5,27,0.00,CLR,SKC,0.00,WeatherDisplay:10.37,2013-07-16 21:25:00,
2013-07-16 15:31:00,89.3,51.9,29.66,NE,55,2.3,2.3,28,0.00,CLR,SKC,0.00,WeatherDisplay:10.37,2013-07-16 21:31:00,
2013-07-16 15:36:00,89.6,50.2,29.66,ENE,59,3.5,3.5,26,0.00,CLR,SKC,0.00,WeatherDisplay:10.37,2013-07-16 21:36:00,
2013-07-16 15:41:00,89.6,51.2,29.66,NE,41,2.3,2.3,27,0.00,CLR,SKC,0.00,WeatherDisplay:10.37,2013-07-16 21:41:00,
2013-07-16 15:46:00,90.4,51.9,29.65,ESE,111,2.3,2.3,27,0.00,CLR,SKC,0.00,WeatherDisplay:10.37,2013-07-16 21:46:00,
2013-07-16 15:51:00,90.1,50.6,29.65,NE,53,2.3,2.3,26,0.00,CLR,SKC,0.00,WeatherDisplay:10.37,2013-07-16 21:51:00,
2013-07-16 15:56:00,90.3,52.8,29.65,NE,49,2.3,2.3,28,0.00,CLR,SKC,0.00,WeatherDisplay:10.37,2013-07-16 21:56:00,
2013-07-16 16:01:00,90.4,49.8,29.65,NE,38,3.5,3.5,25,0.00,CLR,SKC,0.00,WeatherDisplay:10.37,2013-07-16 22:01:00,
2013-07-16 16:06:00,89.9,50.4,29.65,NE,34,3.5,3.5,26,0.00,CLR,SKC,0.00,WeatherDisplay:10.37,2013-07-16 22:06:00,
2013-07-16 16:11:00,90.1,50.6,29.64,North,355,3.5,3.5,26,0.00,CLR,SKC,0.00,WeatherDisplay:10.37,2013-07-16 22:11:00,
2013-07-16 16:16:00,90.1,50.6,29.64,ENE,57,3.5,3.5,26,0.00,CLR,SKC,0.00,WeatherDisplay:10.37,2013-07-16 22:16:00,
2013-07-16 16:21:00,90.3,50.8,29.64,NE,38,3.5,3.5,26,0.00,CLR,SKC,0.00,WeatherDisplay:10.37,2013-07-16 22:21:00,
2013-07-16 16:26:00,90.2,50.7,29.64,ENE,75,2.3,2.3,26,0.00,CLR,SKC,0.00,WeatherDisplay:10.37,2013-07-16 22:26:00,
2013-07-16 16:31:00,89.9,49.4,29.63,NE,38,2.3,2.3,25,0.00,CLR,SKC,0.00,WeatherDisplay:10.37,2013-07-16 22:31:00,
2013-07-16 16:36:00,89.6,52.2,29.63,East,94,3.5,3.5,28,0.00,CLR,SKC,0.00,WeatherDisplay:10.37,2013-07-16 22:36:00,
2013-07-16 16:41:00,88.7,50.4,29.63,North,355,2.3,2.3,27,0.00,CLR,SKC,0.00,WeatherDisplay:10.37,2013-07-16 22:41:00,
2013-07-16 16:46:00,88.5,49.2,29.63,NNE,32,2.3,2.3,26,0.00,CLR,SKC,0.00,WeatherDisplay:10.37,2013-07-16 22:46:00,
2013-07-16 16:51:00,88.2,50.0,29.63,NNE,15,1.1,1.1,27,0.00,CLR,SKC,0.00,WeatherDisplay:10.37,2013-07-16 22:51:00,
2013-07-16 16:57:00,87.8,49.7,29.64,ENE,61,2.3,2.3,27,0.00,CLR,SKC,0.00,WeatherDisplay:10.37,2013-07-16 22:57:00,
2013-07-16 17:02:00,87.7,52.4,29.64,ENE,61,1.1,1.1,30,0.00,CLR,SKC,0.00,WeatherDisplay:10.37,2013-07-16 23:02:00,
2013-07-16 17:07:00,87.3,52.1,29.64,ENE,59,1.1,1.1,30,0.00,CLR,SKC,0.00,WeatherDisplay:10.37,2013-07-16 23:07:00,
2013-07-16 17:12:00,86.9,55.2,29.64,NE,53,1.1,0.0,34,0.00,CLR,SKC,0.00,WeatherDisplay:10.37,2013-07-16 23:12:00,
2013-07-16 17:17:00,86.5,57.9,29.64,NE,51,0.0,0.0,38,0.00,CLR,SKC,0.00,WeatherDisplay:10.37,2013-07-16 23:17:00,
2013-07-16 17:22:00,85.8,58.0,29.64,NE,51,0.0,0.0,39,0.00,CLR,SKC,0.00,WeatherDisplay:10.37,2013-07-16 23:22:00,
2013-07-16 17:27:00,84.9,57.9,29.64,NE,51,0.0,0.0,40,0.00,CLR,SKC,0.00,WeatherDisplay:10.37,2013-07-16 23:27:00,
2013-07-16 17:32:00,84.0,59.1,29.64,NE,52,1.1,0.0,43,0.00,CLR,SKC,0.00,WeatherDisplay:10.37,2013-07-16 23:32:00,
2013-07-16 17:38:00,83.0,56.9,29.65,ENE,69,1.0,1.0,41,0.00,CLR,SKC,0.00,WeatherDisplay:10.37,2013-07-16 23:38:00,
2013-07-16 17:42:00,82.0,55.3,29.66,ESE,123,1.1,1.1,40,0.00,CLR,SKC,0.00,WeatherDisplay:10.37,2013-07-16 23:42:00,
2013-07-16 17:45:00,81.4,56.8,29.67,ESE,123,0.0,0.0,43,0.00,CLR,SKC,0.00,WeatherDisplay:10.37,2013-07-16 23:45:00,
2013-07-16 17:50:00,80.9,55.7,29.68,South,171,1.1,0.0,42,0.00,CLR,SKC,0.00,WeatherDisplay:10.37,2013-07-16 23:50:00,
2013-07-16 17:55:00,80.8,56.2,29.68,South,171,0.0,0.0,43,0.00,CLR,SKC,0.00,WeatherDisplay:10.37,2013-07-16 23:55:00,
2013-07-16 18:00:00,80.4,54.5,29.69,SW,219,3.0,3.0,41,0.00,CLR,SKC,0.00,WeatherDisplay:10.37,2013-07-17 00:00:00,
2013-07-16 18:05:00,80.2,52.3,29.71,SSW,205,8.1,8.1,38,0.00,CLR,SKC,0.00,WeatherDisplay:10.37,2013-07-17 00:05:00,
2013-07-16 18:10:00,79.8,55.9,29.71,SW,222,3.5,3.5,44,0.00,CLR,SKC,0.00,WeatherDisplay:10.37,2013-07-17 00:10:00,
2013-07-16 18:15:00,78.8,56.3,29.72,SW,231,4.6,4.6,46,0.00,CLR,SKC,0.00,WeatherDisplay:10.37,2013-07-17 00:15:00,
2013-07-16 18:20:00,77.8,56.5,29.72,South,171,3.5,3.5,48,0.00,CLR,SKC,0.00,WeatherDisplay:10.37,2013-07-17 00:20:00,
2013-07-16 18:25:00,77.5,56.8,29.72,WSW,237,3.0,3.0,49,0.00,CLR,SKC,0.00,WeatherDisplay:10.37,2013-07-17 00:25:00,
2013-07-16 18:30:00,77.2,56.0,29.73,SSW,211,4.6,4.6,48,0.00,CLR,SKC,0.00,WeatherDisplay:10.37,2013-07-17 00:30:00,
2013-07-16 18:35:00,77.2,56.0,29.73,WSW,245,3.5,3.5,48,0.00,CLR,SKC,0.00,WeatherDisplay:10.37,2013-07-17 00:35:00,
2013-07-16 18:41:00,77.2,57.7,29.73,SW,223,1.1,1.1,51,0.00,CLR,SKC,0.00,WeatherDisplay:10.37,2013-07-17 00:41:00,
2013-07-16 18:46:00,77.1,55.3,29.73,West,259,4.0,4.0,47,0.00,CLR,SKC,0.00,WeatherDisplay:10.37,2013-07-17 00:46:00,
2013-07-16 18:51:00,77.4,56.2,29.73,SW,236,3.5,0.0,48,0.00,CLR,SKC,0.00,WeatherDisplay:10.37,2013-07-17 00:51:00,
2013-07-16 18:56:00,77.3,56.6,29.73,SW,236,0.0,0.0,49,0.00,CLR,SKC,0.00,WeatherDisplay:10.37,2013-07-17 00:56:00,
2013-07-16 19:01:00,77.2,56.6,29.73,SW,223,0.0,0.0,49,0.00,CLR,SKC,0.00,WeatherDisplay:10.37,2013-07-17 01:01:00,
2013-07-16 19:06:00,77.1,57.6,29.73,SW,230,3.5,3.5,51,0.00,CLR,SKC,0.00,WeatherDisplay:10.37,2013-07-17 01:06:00,
2013-07-16 19:11:00,76.7,58.3,29.72,SSW,205,3.5,3.5,53,0.00,CLR,SKC,0.00,WeatherDisplay:10.37,2013-07-17 01:11:00,
2013-07-16 19:16:00,76.2,58.3,29.72,SSW,207,4.6,4.6,54,0.00,CLR,SKC,0.00,WeatherDisplay:10.37,2013-07-17 01:16:00,
2013-07-16 19:22:00,75.8,58.0,29.72,WSW,242,3.5,3.5,54,0.00,CLR,SKC,0.00,WeatherDisplay:10.37,2013-07-17 01:22:00,
2013-07-16 19:27:00,75.8,58.0,29.73,SSW,211,3.5,3.5,54,0.00,CLR,SKC,0.00,WeatherDisplay:10.37,2013-07-17 01:27:00,
2013-07-16 19:33:00,75.6,57.8,29.72,SSW,209,3.5,3.5,54,0.00,CLR,SKC,0.00,WeatherDisplay:10.37,2013-07-17 01:33:00,
2013-07-16 19:38:00,75.7,57.9,29.73,SW,232,4.0,4.0,54,0.00,CLR,SKC,0.00,WeatherDisplay:10.37,2013-07-17 01:38:00,
2013-07-16 19:43:00,76.0,57.1,29.73,SW,234,4.6,4.6,52,0.00,CLR,SKC,0.00,WeatherDisplay:10.37,2013-07-17 01:43:00,
2013-07-16 19:48:00,76.4,56.4,29.73,WSW,244,3.5,3.5,50,0.00,CLR,SKC,0.00,WeatherDisplay:10.37,2013-07-17 01:48:00,
2013-07-16 19:53:00,76.5,57.0,29.73,SSW,209,3.5,3.5,51,0.00,CLR,SKC,0.00,WeatherDisplay:10.37,2013-07-17 01:53:00,
2013-07-16 19:58:00,76.3,57.9,29.74,SSW,208,0.0,2.0,53,0.00,CLR,SKC,0.00,WeatherDisplay:10.37,2013-07-17 01:58:00,
2013-07-16 20:04:00,75.9,59.6,29.74,South,172,1.1,1.1,57,0.00,CLR,SKC,0.00,WeatherDisplay:10.37,2013-07-17 02:04:00,
2013-07-16 20:09:00,75.3,58.5,29.75,South,172,0.0,0.0,56,0.00,CLR,SKC,0.00,WeatherDisplay:10.37,2013-07-17 02:09:00,
2013-07-16 20:15:00,75.1,58.3,29.75,South,172,0.0,0.2,56,0.00,CLR,SKC,0.00,WeatherDisplay:10.37,2013-07-17 02:15:00,
2013-07-16 20:21:00,75.0,58.7,29.75,WSW,249,2.3,2.3,57,0.00,CLR,SKC,0.00,WeatherDisplay:10.37,2013-07-17 02:21:00,
2013-07-16 20:26:00,74.7,59.9,29.76,WSW,249,1.1,0.0,60,0.00,CLR,SKC,0.00,WeatherDisplay:10.37,2013-07-17 02:26:00,
2013-07-16 20:31:00,74.3,59.5,29.75,WSW,249,1.1,1.1,60,0.00,CLR,SKC,0.00,WeatherDisplay:10.37,2013-07-17 02:31:00,
2013-07-16 20:37:00,74.0,60.6,29.75,WSW,249,0.0,0.0,63,0.00,CLR,SKC,0.00,WeatherDisplay:10.37,2013-07-17 02:37:00,
2013-07-16 20:43:00,73.3,59.0,29.76,WSW,238,4.0,4.0,61,0.00,CLR,SKC,0.00,WeatherDisplay:10.37,2013-07-17 02:43:00,
2013-07-16 20:49:00,73.6,58.9,29.76,SW,227,2.3,2.3,60,0.00,CLR,SKC,0.00,WeatherDisplay:10.37,2013-07-17 02:49:00,
2013-07-16 20:54:00,74.0,58.8,29.76,WSW,246,3.5,3.5,59,0.00,CLR,SKC,0.00,WeatherDisplay:10.37,2013-07-17 02:54:00,
2013-07-16 20:59:00,74.4,58.2,29.76,WSW,241,1.1,1.1,57,0.00,CLR,SKC,0.00,WeatherDisplay:10.37,2013-07-17 02:59:00,
2013-07-16 21:04:00,74.7,56.9,29.75,SW,222,0.0,0.0,54,0.00,CLR,SKC,0.00,WeatherDisplay:10.37,2013-07-17 03:04:00,
2013-07-16 21:09:00,74.9,57.6,29.76,SW,222,0.0,0.0,55,0.00,CLR,SKC,0.00,WeatherDisplay:10.37,2013-07-17 03:09:00,
2013-07-16 21:14:00,74.7,58.9,29.76,SW,222,0.0,0.0,58,0.00,CLR,SKC,0.00,WeatherDisplay:10.37,2013-07-17 03:14:00,
2013-07-16 21:19:00,74.4,59.1,29.76,SW,222,0.0,0.0,59,0.00,CLR,SKC,0.00,WeatherDisplay:10.37,2013-07-17 03:19:00,
2013-07-16 21:24:00,74.1,59.3,29.76,SW,222,1.0,0.0,60,0.00,CLR,SKC,0.00,WeatherDisplay:10.37,2013-07-17 03:24:00,
2013-07-16 21:30:00,73.5,59.7,29.76,SW,222,0.0,0.0,62,0.00,CLR,SKC,0.00,WeatherDisplay:10.37,2013-07-17 03:30:00,
2013-07-16 21:35:00,73.0,59.7,29.75,SW,222,0.0,0.0,63,0.00,CLR,SKC,0.00,WeatherDisplay:10.37,2013-07-17 03:35:00,
2013-07-16 21:40:00,72.5,60.1,29.75,SW,222,0.0,0.0,65,0.00,CLR,SKC,0.00,WeatherDisplay:10.37,2013-07-17 03:40:00,
2013-07-16 21:45:00,72.1,60.5,29.75,SW,222,0.0,0.0,67,0.00,CLR,SKC,0.00,WeatherDisplay:10.37,2013-07-17 03:45:00,
2013-07-16 21:51:00,71.4,60.3,29.75,SW,222,0.0,0.0,68,0.00,CLR,SKC,0.00,WeatherDisplay:10.37,2013-07-17 03:51:00,
2013-07-16 21:57:00,70.4,59.7,29.76,SW,222,0.0,0.0,69,0.00,CLR,SKC,0.00,WeatherDisplay:10.37,2013-07-17 03:57:00,
2013-07-16 22:01:00,70.0,59.8,29.75,SW,222,0.0,0.0,70,0.00,CLR,SKC,0.00,WeatherDisplay:10.37,2013-07-17 04:01:00,
2013-07-16 22:03:00,69.8,59.6,29.75,SW,222,0.0,0.0,70,0.00,CLR,SKC,0.00,WeatherDisplay:10.37,2013-07-17 04:03:00,
2013-07-16 22:04:00,69.8,59.6,29.75,SW,222,0.0,0.0,70,0.00,CLR,SKC,0.00,WeatherDisplay:10.37,2013-07-17 04:04:00,
2013-07-16 22:05:00,69.7,59.5,29.75,SW,222,0.0,0.0,70,0.00,CLR,SKC,0.00,WeatherDisplay:10.37,2013-07-17 04:05:00,
2013-07-16 22:10:00,69.5,60.5,29.76,SW,222,0.0,0.0,73,0.00,CLR,SKC,0.00,WeatherDisplay:10.37,2013-07-17 04:10:00,
2013-07-16 22:11:00,69.5,60.1,29.76,SW,222,0.0,0.0,72,0.00,CLR,SKC,0.00,WeatherDisplay:10.37,2013-07-17 04:11:00,
2013-07-16 22:16:00,69.1,60.1,29.76,SW,222,0.0,0.0,73,0.00,CLR,SKC,0.00,WeatherDisplay:10.37,2013-07-17 04:16:00,
2013-07-16 22:21:00,68.3,59.7,29.76,SW,222,1.1,0.0,74,0.00,CLR,SKC,0.00,WeatherDisplay:10.37,2013-07-17 04:21:00,
2013-07-16 22:25:00,68.0,59.8,29.77,SW,222,0.0,0.0,75,0.00,CLR,SKC,0.00,WeatherDisplay:10.37,2013-07-17 04:25:00,
2013-07-16 22:30:00,68.0,60.2,29.77,SW,222,1.1,0.0,76,0.00,CLR,SKC,0.00,WeatherDisplay:10.37,2013-07-17 04:30:00,
2013-07-16 22:36:00,67.9,59.7,29.77,WSW,246,0.0,0.0,75,0.00,CLR,SKC,0.00,WeatherDisplay:10.37,2013-07-17 04:36:00,
2013-07-16 22:41:00,67.6,59.8,29.77,WSW,251,0.0,0.0,76,0.00,CLR,SKC,0.00,WeatherDisplay:10.37,2013-07-17 04:41:00,
2013-07-16 22:46:00,67.2,59.4,29.77,WSW,251,0.0,0.0,76,0.00,CLR,SKC,0.00,WeatherDisplay:10.37,2013-07-17 04:46:00,
2013-07-16 22:51:00,66.8,59.4,29.77,WSW,251,0.0,0.1,77,0.00,CLR,SKC,0.00,WeatherDisplay:10.37,2013-07-17 04:51:00,
2013-07-16 22:55:00,66.7,59.6,29.77,WSW,251,0.0,0.0,78,0.00,CLR,SKC,0.00,WeatherDisplay:10.37,2013-07-17 04:55:00,
2013-07-16 23:00:00,66.6,59.5,29.77,WSW,251,1.1,0.0,78,0.00,CLR,SKC,0.00,WeatherDisplay:10.37,2013-07-17 05:00:00,
2013-07-16 23:05:00,66.2,59.5,29.77,WSW,251,0.0,0.0,79,0.00,CLR,SKC,0.00,WeatherDisplay:10.37,2013-07-17 05:05:00,
2013-07-16 23:11:00,66.1,59.7,29.76,WSW,251,0.0,0.0,80,0.00,CLR,SKC,0.00,WeatherDisplay:10.37,2013-07-17 05:11:00,
2013-07-16 23:16:00,65.8,59.5,29.76,WSW,251,0.0,0.0,80,0.00,CLR,SKC,0.00,WeatherDisplay:10.37,2013-07-17 05:16:00,
2013-07-16 23:21:00,65.6,59.6,29.76,WSW,251,0.0,0.0,81,0.00,CLR,SKC,0.00,WeatherDisplay:10.37,2013-07-17 05:21:00,
2013-07-16 23:27:00,65.4,59.4,29.76,WSW,251,0.0,0.0,81,0.00,CLR,SKC,0.00,WeatherDisplay:10.37,2013-07-17 05:27:00,
2013-07-16 23:32:00,65.3,59.7,29.76,WSW,251,0.0,0.0,82,0.00,CLR,SKC,0.00,WeatherDisplay:10.37,2013-07-17 05:32:00,
2013-07-16 23:37:00,65.2,59.6,29.76,WSW,251,0.0,0.0,82,0.00,CLR,SKC,0.00,WeatherDisplay:10.37,2013-07-17 05:37:00,
2013-07-16 23:42:00,65.0,59.4,29.76,WSW,251,0.0,0.0,82,0.00,CLR,SKC,0.00,WeatherDisplay:10.37,2013-07-17 05:42:00,
2013-07-16 23:47:00,64.9,59.3,29.76,WSW,251,0.0,0.0,82,0.00,CLR,SKC,0.00,WeatherDisplay:10.37,2013-07-17 05:47:00,
2013-07-16 23:52:00,64.6,59.3,29.76,WSW,251,0.0,0.0,83,0.00,CLR,SKC,0.00,WeatherDisplay:10.37,2013-07-17 05:52:00,
2013-07-16 23:57:00,64.1,58.8,29.76,WSW,251,0.0,0.0,83,0.00,CLR,SKC,0.00,WeatherDisplay:10.37,2013-07-17 05:57:00,